sensor_id;sensor_type;location;lat;lon;timestamp;temperature;humidity
70826;SHT31;58446;41.490;22.098;2023-04-06T00:01:07;7.09;57.11
70826;SHT31;58446;41.490;22.098;2023-04-06T00:03:34;7.19;57.44
70826;SHT31;58446;41.490;22.098;2023-04-06T00:06:00;7.16;57.45
70826;SHT31;58446;41.490;22.098;2023-04-06T00:08:26;7.25;57.52
70826;SHT31;58446;41.490;22.098;2023-04-06T00:10:52;7.30;57.08
70826;SHT31;58446;41.490;22.098;2023-04-06T00:13:18;7.27;57.18
70826;SHT31;58446;41.490;22.098;2023-04-06T00:15:44;7.29;57.27
70826;SHT31;58446;41.490;22.098;2023-04-06T00:18:10;7.27;57.09
70826;SHT31;58446;41.490;22.098;2023-04-06T00:20:35;7.09;56.43
70826;SHT31;58446;41.490;22.098;2023-04-06T00:23:01;7.20;57.12
70826;SHT31;58446;41.490;22.098;2023-04-06T00:25:27;7.22;57.13
70826;SHT31;58446;41.490;22.098;2023-04-06T00:27:53;7.02;57.07
70826;SHT31;58446;41.490;22.098;2023-04-06T00:30:18;7.05;57.62
70826;SHT31;58446;41.490;22.098;2023-04-06T00:32:44;7.03;58.06
70826;SHT31;58446;41.490;22.098;2023-04-06T00:35:10;7.12;57.83
70826;SHT31;58446;41.490;22.098;2023-04-06T00:37:36;7.08;57.50
70826;SHT31;58446;41.490;22.098;2023-04-06T00:40:01;7.13;56.47
70826;SHT31;58446;41.490;22.098;2023-04-06T00:42:28;7.11;57.08
70826;SHT31;58446;41.490;22.098;2023-04-06T00:44:55;7.18;57.39
70826;SHT31;58446;41.490;22.098;2023-04-06T00:47:21;7.20;56.28
70826;SHT31;58446;41.490;22.098;2023-04-06T00:49:48;7.13;56.89
70826;SHT31;58446;41.490;22.098;2023-04-06T00:52:13;7.18;57.52
70826;SHT31;58446;41.490;22.098;2023-04-06T00:54:40;7.08;56.74
70826;SHT31;58446;41.490;22.098;2023-04-06T00:57:06;7.08;57.40
70826;SHT31;58446;41.490;22.098;2023-04-06T00:59:31;7.16;56.82
70826;SHT31;58446;41.490;22.098;2023-04-06T01:01:57;6.94;57.03
70826;SHT31;58446;41.490;22.098;2023-04-06T01:04:23;6.72;57.70
70826;SHT31;58446;41.490;22.098;2023-04-06T01:06:49;6.75;57.59
70826;SHT31;58446;41.490;22.098;2023-04-06T01:09:18;6.84;57.38
70826;SHT31;58446;41.490;22.098;2023-04-06T01:11:44;6.89;56.77
70826;SHT31;58446;41.490;22.098;2023-04-06T01:14:10;6.91;57.77
70826;SHT31;58446;41.490;22.098;2023-04-06T01:16:36;7.02;57.64
70826;SHT31;58446;41.490;22.098;2023-04-06T01:19:09;6.95;56.93
70826;SHT31;58446;41.490;22.098;2023-04-06T01:21:36;6.96;56.82
70826;SHT31;58446;41.490;22.098;2023-04-06T01:24:02;6.98;56.68
70826;SHT31;58446;41.490;22.098;2023-04-06T01:26:28;6.98;57.40
70826;SHT31;58446;41.490;22.098;2023-04-06T01:28:55;7.09;57.23
70826;SHT31;58446;41.490;22.098;2023-04-06T01:31:21;7.08;57.39
70826;SHT31;58446;41.490;22.098;2023-04-06T01:33:47;6.99;56.99
70826;SHT31;58446;41.490;22.098;2023-04-06T01:36:13;6.95;56.32
70826;SHT31;58446;41.490;22.098;2023-04-06T01:38:39;6.95;56.45
70826;SHT31;58446;41.490;22.098;2023-04-06T01:41:07;6.99;57.19
70826;SHT31;58446;41.490;22.098;2023-04-06T01:43:32;7.11;56.80
70826;SHT31;58446;41.490;22.098;2023-04-06T01:45:58;6.92;56.26
70826;SHT31;58446;41.490;22.098;2023-04-06T01:48:24;6.78;56.95
70826;SHT31;58446;41.490;22.098;2023-04-06T01:50:49;6.67;56.73
70826;SHT31;58446;41.490;22.098;2023-04-06T01:53:15;6.94;57.29
70826;SHT31;58446;41.490;22.098;2023-04-06T01:55:41;6.80;56.78
70826;SHT31;58446;41.490;22.098;2023-04-06T01:58:07;6.77;57.12
70826;SHT31;58446;41.490;22.098;2023-04-06T02:00:33;6.85;57.91
70826;SHT31;58446;41.490;22.098;2023-04-06T02:02:58;6.85;57.26
70826;SHT31;58446;41.490;22.098;2023-04-06T02:05:25;6.99;57.22
70826;SHT31;58446;41.490;22.098;2023-04-06T02:07:51;6.96;56.67
70826;SHT31;58446;41.490;22.098;2023-04-06T02:10:17;6.81;57.06
70826;SHT31;58446;41.490;22.098;2023-04-06T02:12:43;6.81;57.28
70826;SHT31;58446;41.490;22.098;2023-04-06T02:15:09;6.84;57.29
70826;SHT31;58446;41.490;22.098;2023-04-06T02:17:35;6.75;57.47
70826;SHT31;58446;41.490;22.098;2023-04-06T02:20:00;6.77;57.87
70826;SHT31;58446;41.490;22.098;2023-04-06T02:22:26;6.74;57.99
70826;SHT31;58446;41.490;22.098;2023-04-06T02:24:52;6.85;57.83
70826;SHT31;58446;41.490;22.098;2023-04-06T02:27:17;6.75;57.24
70826;SHT31;58446;41.490;22.098;2023-04-06T02:29:43;6.91;57.99
70826;SHT31;58446;41.490;22.098;2023-04-06T02:32:08;6.94;57.22
70826;SHT31;58446;41.490;22.098;2023-04-06T02:34:34;6.98;57.58
70826;SHT31;58446;41.490;22.098;2023-04-06T02:37:00;6.96;56.77
70826;SHT31;58446;41.490;22.098;2023-04-06T02:39:26;7.01;57.54
70826;SHT31;58446;41.490;22.098;2023-04-06T02:41:51;6.99;57.66
70826;SHT31;58446;41.490;22.098;2023-04-06T02:44:18;6.96;56.74
70826;SHT31;58446;41.490;22.098;2023-04-06T02:46:43;7.12;57.06
70826;SHT31;58446;41.490;22.098;2023-04-06T02:49:09;7.03;56.65
70826;SHT31;58446;41.490;22.098;2023-04-06T02:51:35;6.95;56.66
70826;SHT31;58446;41.490;22.098;2023-04-06T02:54:00;6.82;56.56
70826;SHT31;58446;41.490;22.098;2023-04-06T02:56:26;6.99;57.30
70826;SHT31;58446;41.490;22.098;2023-04-06T02:58:52;6.94;57.06
70826;SHT31;58446;41.490;22.098;2023-04-06T03:01:17;7.03;57.14
70826;SHT31;58446;41.490;22.098;2023-04-06T03:03:43;6.99;56.81
70826;SHT31;58446;41.490;22.098;2023-04-06T03:06:09;7.01;56.78
70826;SHT31;58446;41.490;22.098;2023-04-06T03:08:35;7.03;56.88
70826;SHT31;58446;41.490;22.098;2023-04-06T03:11:01;6.96;57.00
70826;SHT31;58446;41.490;22.098;2023-04-06T03:13:26;6.91;57.04
70826;SHT31;58446;41.490;22.098;2023-04-06T03:15:52;6.96;57.24
70826;SHT31;58446;41.490;22.098;2023-04-06T03:18:22;7.06;57.07
70826;SHT31;58446;41.490;22.098;2023-04-06T03:20:51;6.99;57.41
70826;SHT31;58446;41.490;22.098;2023-04-06T03:23:19;6.99;56.92
70826;SHT31;58446;41.490;22.098;2023-04-06T03:25:46;7.09;57.13
70826;SHT31;58446;41.490;22.098;2023-04-06T03:28:12;7.05;56.94
70826;SHT31;58446;41.490;22.098;2023-04-06T03:30:37;7.08;57.28
70826;SHT31;58446;41.490;22.098;2023-04-06T03:33:03;6.99;57.16
70826;SHT31;58446;41.490;22.098;2023-04-06T03:35:29;6.95;56.71
70826;SHT31;58446;41.490;22.098;2023-04-06T03:37:55;6.84;57.07
70826;SHT31;58446;41.490;22.098;2023-04-06T03:40:35;6.89;56.90
70826;SHT31;58446;41.490;22.098;2023-04-06T03:43:01;6.75;57.57
70826;SHT31;58446;41.490;22.098;2023-04-06T03:45:27;6.88;57.71
70826;SHT31;58446;41.490;22.098;2023-04-06T03:47:52;6.72;57.26
70826;SHT31;58446;41.490;22.098;2023-04-06T03:50:18;6.71;58.25
70826;SHT31;58446;41.490;22.098;2023-04-06T03:52:44;6.72;58.35
70826;SHT31;58446;41.490;22.098;2023-04-06T03:55:10;6.68;58.30
70826;SHT31;58446;41.490;22.098;2023-04-06T03:57:36;6.75;57.68
70826;SHT31;58446;41.490;22.098;2023-04-06T04:00:03;6.63;57.42
70826;SHT31;58446;41.490;22.098;2023-04-06T04:02:29;6.70;58.36
70826;SHT31;58446;41.490;22.098;2023-04-06T04:04:54;6.55;57.65
70826;SHT31;58446;41.490;22.098;2023-04-06T04:07:20;6.64;58.26
70826;SHT31;58446;41.490;22.098;2023-04-06T04:09:46;6.53;58.25
70826;SHT31;58446;41.490;22.098;2023-04-06T04:12:11;6.60;58.03
70826;SHT31;58446;41.490;22.098;2023-04-06T04:14:37;6.74;58.21
70826;SHT31;58446;41.490;22.098;2023-04-06T04:17:03;6.58;57.75
70826;SHT31;58446;41.490;22.098;2023-04-06T04:19:28;6.81;58.16
70826;SHT31;58446;41.490;22.098;2023-04-06T04:21:54;6.63;58.18
70826;SHT31;58446;41.490;22.098;2023-04-06T04:24:20;6.80;58.21
70826;SHT31;58446;41.490;22.098;2023-04-06T04:26:45;6.81;58.14
70826;SHT31;58446;41.490;22.098;2023-04-06T04:29:11;6.68;58.19
70826;SHT31;58446;41.490;22.098;2023-04-06T04:31:37;6.84;58.51
70826;SHT31;58446;41.490;22.098;2023-04-06T04:34:02;6.81;58.23
70826;SHT31;58446;41.490;22.098;2023-04-06T04:36:29;6.99;57.82
70826;SHT31;58446;41.490;22.098;2023-04-06T04:38:54;6.85;57.63
70826;SHT31;58446;41.490;22.098;2023-04-06T04:41:20;6.85;57.72
70826;SHT31;58446;41.490;22.098;2023-04-06T04:43:46;6.87;58.06
70826;SHT31;58446;41.490;22.098;2023-04-06T04:46:11;7.01;58.07
70826;SHT31;58446;41.490;22.098;2023-04-06T04:48:37;6.89;58.23
70826;SHT31;58446;41.490;22.098;2023-04-06T04:51:04;6.87;58.47
70826;SHT31;58446;41.490;22.098;2023-04-06T04:53:29;6.87;58.56
70826;SHT31;58446;41.490;22.098;2023-04-06T04:55:55;6.81;58.09
70826;SHT31;58446;41.490;22.098;2023-04-06T04:58:21;6.74;57.54
70826;SHT31;58446;41.490;22.098;2023-04-06T05:00:46;6.72;57.62
70826;SHT31;58446;41.490;22.098;2023-04-06T05:03:26;6.72;57.51
70826;SHT31;58446;41.490;22.098;2023-04-06T05:05:52;6.64;57.19
70826;SHT31;58446;41.490;22.098;2023-04-06T05:08:18;6.54;57.23
70826;SHT31;58446;41.490;22.098;2023-04-06T05:10:44;6.53;57.73
70826;SHT31;58446;41.490;22.098;2023-04-06T05:13:10;6.67;58.01
70826;SHT31;58446;41.490;22.098;2023-04-06T05:15:38;6.72;57.06
70826;SHT31;58446;41.490;22.098;2023-04-06T05:18:06;6.54;57.20
70826;SHT31;58446;41.490;22.098;2023-04-06T05:20:32;6.72;58.09
70826;SHT31;58446;41.490;22.098;2023-04-06T05:22:57;6.70;57.45
70826;SHT31;58446;41.490;22.098;2023-04-06T05:25:24;6.60;57.31
70826;SHT31;58446;41.490;22.098;2023-04-06T05:27:49;6.78;56.90
70826;SHT31;58446;41.490;22.098;2023-04-06T05:30:15;6.84;57.35
70826;SHT31;58446;41.490;22.098;2023-04-06T05:32:41;6.75;56.51
70826;SHT31;58446;41.490;22.098;2023-04-06T05:35:08;6.58;56.63
70826;SHT31;58446;41.490;22.098;2023-04-06T05:37:34;6.77;57.79
70826;SHT31;58446;41.490;22.098;2023-04-06T05:40:00;6.80;57.01
70826;SHT31;58446;41.490;22.098;2023-04-06T05:42:26;6.80;56.71
70826;SHT31;58446;41.490;22.098;2023-04-06T05:44:52;6.87;56.67
70826;SHT31;58446;41.490;22.098;2023-04-06T05:47:18;6.77;56.51
70826;SHT31;58446;41.490;22.098;2023-04-06T05:49:43;6.84;56.60
70826;SHT31;58446;41.490;22.098;2023-04-06T05:52:09;6.94;56.37
70826;SHT31;58446;41.490;22.098;2023-04-06T05:54:38;6.80;56.39
70826;SHT31;58446;41.490;22.098;2023-04-06T05:57:04;6.84;57.09
70826;SHT31;58446;41.490;22.098;2023-04-06T05:59:30;6.82;56.47
70826;SHT31;58446;41.490;22.098;2023-04-06T06:01:56;7.03;56.26
70826;SHT31;58446;41.490;22.098;2023-04-06T06:04:22;7.08;56.13
70826;SHT31;58446;41.490;22.098;2023-04-06T06:06:48;6.98;55.25
70826;SHT31;58446;41.490;22.098;2023-04-06T06:09:14;7.02;55.63
70826;SHT31;58446;41.490;22.098;2023-04-06T06:11:40;6.92;56.05
70826;SHT31;58446;41.490;22.098;2023-04-06T06:14:06;6.92;56.29
70826;SHT31;58446;41.490;22.098;2023-04-06T06:16:32;6.84;55.64
70826;SHT31;58446;41.490;22.098;2023-04-06T06:18:57;7.05;56.42
70826;SHT31;58446;41.490;22.098;2023-04-06T06:21:23;6.96;55.43
70826;SHT31;58446;41.490;22.098;2023-04-06T06:23:49;6.88;55.70
70826;SHT31;58446;41.490;22.098;2023-04-06T06:26:15;6.96;55.70
70826;SHT31;58446;41.490;22.098;2023-04-06T06:28:41;6.87;55.98
70826;SHT31;58446;41.490;22.098;2023-04-06T06:31:07;6.84;56.38
70826;SHT31;58446;41.490;22.098;2023-04-06T06:33:32;6.89;56.60
70826;SHT31;58446;41.490;22.098;2023-04-06T06:35:58;7.06;56.44
70826;SHT31;58446;41.490;22.098;2023-04-06T06:38:24;7.16;56.16
70826;SHT31;58446;41.490;22.098;2023-04-06T06:40:49;7.25;55.87
70826;SHT31;58446;41.490;22.098;2023-04-06T06:43:15;7.23;55.38
70826;SHT31;58446;41.490;22.098;2023-04-06T06:45:41;7.34;55.53
70826;SHT31;58446;41.490;22.098;2023-04-06T06:48:07;7.39;55.07
70826;SHT31;58446;41.490;22.098;2023-04-06T06:50:33;7.40;54.83
70826;SHT31;58446;41.490;22.098;2023-04-06T06:52:58;7.25;54.12
70826;SHT31;58446;41.490;22.098;2023-04-06T06:55:24;7.29;54.58
70826;SHT31;58446;41.490;22.098;2023-04-06T06:57:52;7.29;54.74
70826;SHT31;58446;41.490;22.098;2023-04-06T07:00:18;7.25;54.42
70826;SHT31;58446;41.490;22.098;2023-04-06T07:02:48;7.49;54.70
70826;SHT31;58446;41.490;22.098;2023-04-06T07:05:15;7.63;54.04
70826;SHT31;58446;41.490;22.098;2023-04-06T07:07:41;7.63;53.52
70826;SHT31;58446;41.490;22.098;2023-04-06T07:10:07;7.67;53.42
70826;SHT31;58446;41.490;22.098;2023-04-06T07:12:33;7.67;53.71
70826;SHT31;58446;41.490;22.098;2023-04-06T07:15:00;7.70;53.63
70826;SHT31;58446;41.490;22.098;2023-04-06T07:17:25;7.69;53.07
70826;SHT31;58446;41.490;22.098;2023-04-06T07:19:51;7.93;53.00
70826;SHT31;58446;41.490;22.098;2023-04-06T07:22:17;7.97;53.12
70826;SHT31;58446;41.490;22.098;2023-04-06T07:24:42;8.06;52.60
70826;SHT31;58446;41.490;22.098;2023-04-06T07:27:08;8.15;52.22
70826;SHT31;58446;41.490;22.098;2023-04-06T07:29:34;8.16;51.57
70826;SHT31;58446;41.490;22.098;2023-04-06T07:32:00;8.25;51.17
70826;SHT31;58446;41.490;22.098;2023-04-06T07:34:26;8.38;51.26
70826;SHT31;58446;41.490;22.098;2023-04-06T07:36:51;8.62;51.21
70826;SHT31;58446;41.490;22.098;2023-04-06T07:39:19;8.91;50.57
70826;SHT31;58446;41.490;22.098;2023-04-06T07:41:45;9.11;49.54
70826;SHT31;58446;41.490;22.098;2023-04-06T07:44:10;9.39;49.59
70826;SHT31;58446;41.490;22.098;2023-04-06T07:46:36;9.21;49.60
70826;SHT31;58446;41.490;22.098;2023-04-06T07:49:02;9.39;48.60
70826;SHT31;58446;41.490;22.098;2023-04-06T07:51:27;9.41;48.81
70826;SHT31;58446;41.490;22.098;2023-04-06T07:53:53;9.37;47.94
70826;SHT31;58446;41.490;22.098;2023-04-06T07:56:19;9.42;49.36
70826;SHT31;58446;41.490;22.098;2023-04-06T07:58:46;9.44;49.39
70826;SHT31;58446;41.490;22.098;2023-04-06T08:01:11;9.18;49.48
70826;SHT31;58446;41.490;22.098;2023-04-06T08:03:37;8.99;47.09
70826;SHT31;58446;41.490;22.098;2023-04-06T08:06:03;9.06;49.20
70826;SHT31;58446;41.490;22.098;2023-04-06T08:08:29;9.17;49.24
70826;SHT31;58446;41.490;22.098;2023-04-06T08:10:56;9.42;49.39
70826;SHT31;58446;41.490;22.098;2023-04-06T08:13:21;9.58;48.53
70826;SHT31;58446;41.490;22.098;2023-04-06T08:15:47;9.63;47.89
70826;SHT31;58446;41.490;22.098;2023-04-06T08:18:13;8.76;48.31
70826;SHT31;58446;41.490;22.098;2023-04-06T08:20:39;9.04;49.32
70826;SHT31;58446;41.490;22.098;2023-04-06T08:23:05;9.61;49.27
70826;SHT31;58446;41.490;22.098;2023-04-06T08:25:33;9.76;47.81
70826;SHT31;58446;41.490;22.098;2023-04-06T08:27:59;9.96;47.87
70826;SHT31;58446;41.490;22.098;2023-04-06T08:30:25;10.37;48.35
70826;SHT31;58446;41.490;22.098;2023-04-06T08:32:51;10.44;46.82
70826;SHT31;58446;41.490;22.098;2023-04-06T08:35:17;10.40;46.74
70826;SHT31;58446;41.490;22.098;2023-04-06T08:37:43;10.54;46.70
70826;SHT31;58446;41.490;22.098;2023-04-06T08:40:09;10.44;46.20
70826;SHT31;58446;41.490;22.098;2023-04-06T08:42:39;10.32;46.28
70826;SHT31;58446;41.490;22.098;2023-04-06T08:45:06;10.32;46.77
70826;SHT31;58446;41.490;22.098;2023-04-06T08:47:32;10.16;46.83
70826;SHT31;58446;41.490;22.098;2023-04-06T08:50:03;9.66;47.37
70826;SHT31;58446;41.490;22.098;2023-04-06T08:52:31;9.56;47.41
70826;SHT31;58446;41.490;22.098;2023-04-06T08:54:57;9.68;48.56
70826;SHT31;58446;41.490;22.098;2023-04-06T08:57:23;9.71;47.81
70826;SHT31;58446;41.490;22.098;2023-04-06T08:59:50;9.58;47.65
70826;SHT31;58446;41.490;22.098;2023-04-06T09:02:18;9.68;48.20
70826;SHT31;58446;41.490;22.098;2023-04-06T09:04:48;9.95;47.57
70826;SHT31;58446;41.490;22.098;2023-04-06T09:07:16;9.96;47.48
70826;SHT31;58446;41.490;22.098;2023-04-06T09:09:42;9.68;47.03
70826;SHT31;58446;41.490;22.098;2023-04-06T09:12:27;9.68;47.43
70826;SHT31;58446;41.490;22.098;2023-04-06T09:14:54;9.90;47.50
70826;SHT31;58446;41.490;22.098;2023-04-06T09:17:21;10.17;47.89
70826;SHT31;58446;41.490;22.098;2023-04-06T09:19:47;10.33;48.03
70826;SHT31;58446;41.490;22.098;2023-04-06T09:22:13;10.41;46.84
70826;SHT31;58446;41.490;22.098;2023-04-06T09:24:47;10.43;46.80
70826;SHT31;58446;41.490;22.098;2023-04-06T09:27:13;10.60;45.98
70826;SHT31;58446;41.490;22.098;2023-04-06T09:29:41;10.57;46.63
70826;SHT31;58446;41.490;22.098;2023-04-06T09:32:07;10.56;46.38
70826;SHT31;58446;41.490;22.098;2023-04-06T09:34:37;10.63;46.24
70826;SHT31;58446;41.490;22.098;2023-04-06T09:39:39;10.58;46.93
70826;SHT31;58446;41.490;22.098;2023-04-06T09:42:05;10.47;47.19
70826;SHT31;58446;41.490;22.098;2023-04-06T09:44:31;10.47;47.92
70826;SHT31;58446;41.490;22.098;2023-04-06T09:46:56;10.58;47.12
70826;SHT31;58446;41.490;22.098;2023-04-06T09:49:22;10.38;46.90
70826;SHT31;58446;41.490;22.098;2023-04-06T09:51:54;10.33;47.06
70826;SHT31;58446;41.490;22.098;2023-04-06T09:54:22;10.12;47.25
70826;SHT31;58446;41.490;22.098;2023-04-06T09:59:50;10.12;47.23
70826;SHT31;58446;41.490;22.098;2023-04-06T10:02:50;10.23;47.71
70826;SHT31;58446;41.490;22.098;2023-04-06T10:05:33;10.68;47.58
70826;SHT31;58446;41.490;22.098;2023-04-06T10:08:06;11.08;46.45
70826;SHT31;58446;41.490;22.098;2023-04-06T10:10:33;11.30;46.01
70826;SHT31;58446;41.490;22.098;2023-04-06T10:12:58;10.81;45.73
70826;SHT31;58446;41.490;22.098;2023-04-06T10:15:25;10.50;47.34
70826;SHT31;58446;41.490;22.098;2023-04-06T10:17:51;10.82;48.15
70826;SHT31;58446;41.490;22.098;2023-04-06T10:20:31;11.27;46.90
70826;SHT31;58446;41.490;22.098;2023-04-06T10:23:37;11.47;45.29
70826;SHT31;58446;41.490;22.098;2023-04-06T10:26:05;11.33;45.83
70826;SHT31;58446;41.490;22.098;2023-04-06T10:28:37;10.85;46.02
70826;SHT31;58446;41.490;22.098;2023-04-06T10:31:06;10.79;46.76
70826;SHT31;58446;41.490;22.098;2023-04-06T10:33:32;10.77;46.31
70826;SHT31;58446;41.490;22.098;2023-04-06T10:35:58;11.09;45.87
70826;SHT31;58446;41.490;22.098;2023-04-06T10:38:35;11.35;45.80
70826;SHT31;58446;41.490;22.098;2023-04-06T10:41:05;11.53;45.44
70826;SHT31;58446;41.490;22.098;2023-04-06T10:43:36;11.56;45.26
70826;SHT31;58446;41.490;22.098;2023-04-06T10:46:02;11.69;44.39
70826;SHT31;58446;41.490;22.098;2023-04-06T10:48:39;11.90;44.27
70826;SHT31;58446;41.490;22.098;2023-04-06T10:51:25;12.01;44.58
70826;SHT31;58446;41.490;22.098;2023-04-06T10:53:53;12.20;43.66
70826;SHT31;58446;41.490;22.098;2023-04-06T10:56:22;12.35;43.93
70826;SHT31;58446;41.490;22.098;2023-04-06T10:58:49;12.22;43.68
70826;SHT31;58446;41.490;22.098;2023-04-06T11:01:16;12.18;44.59
70826;SHT31;58446;41.490;22.098;2023-04-06T11:03:47;11.91;43.94
70826;SHT31;58446;41.490;22.098;2023-04-06T11:06:22;11.53;44.80
70826;SHT31;58446;41.490;22.098;2023-04-06T11:08:48;11.71;45.13
70826;SHT31;58446;41.490;22.098;2023-04-06T11:11:16;11.67;44.70
70826;SHT31;58446;41.490;22.098;2023-04-06T11:13:51;11.52;44.85
70826;SHT31;58446;41.490;22.098;2023-04-06T11:16:20;11.15;45.44
70826;SHT31;58446;41.490;22.098;2023-04-06T11:24:13;11.36;45.66
70826;SHT31;58446;41.490;22.098;2023-04-06T11:26:55;11.37;45.50
70826;SHT31;58446;41.490;22.098;2023-04-06T11:29:22;11.67;45.55
70826;SHT31;58446;41.490;22.098;2023-04-06T11:31:53;11.83;45.18
70826;SHT31;58446;41.490;22.098;2023-04-06T11:34:21;11.56;45.44
70826;SHT31;58446;41.490;22.098;2023-04-06T11:36:54;11.36;45.75
70826;SHT31;58446;41.490;22.098;2023-04-06T11:39:21;11.55;45.64
70826;SHT31;58446;41.490;22.098;2023-04-06T11:41:53;11.81;46.35
70826;SHT31;58446;41.490;22.098;2023-04-06T11:44:40;12.01;44.49
70826;SHT31;58446;41.490;22.098;2023-04-06T11:47:09;12.22;45.48
70826;SHT31;58446;41.490;22.098;2023-04-06T11:49:40;12.08;44.28
70826;SHT31;58446;41.490;22.098;2023-04-06T11:52:20;12.18;44.49
70826;SHT31;58446;41.490;22.098;2023-04-06T11:54:48;11.94;44.21
70826;SHT31;58446;41.490;22.098;2023-04-06T11:57:14;11.60;45.44
70826;SHT31;58446;41.490;22.098;2023-04-06T11:59:40;11.86;44.78
70826;SHT31;58446;41.490;22.098;2023-04-06T12:02:05;11.99;44.68
70826;SHT31;58446;41.490;22.098;2023-04-06T12:04:31;11.94;44.82
70826;SHT31;58446;41.490;22.098;2023-04-06T12:06:57;12.01;44.84
70826;SHT31;58446;41.490;22.098;2023-04-06T12:09:23;12.24;45.70
70826;SHT31;58446;41.490;22.098;2023-04-06T12:11:49;12.44;44.76
70826;SHT31;58446;41.490;22.098;2023-04-06T12:14:15;12.58;43.71
70826;SHT31;58446;41.490;22.098;2023-04-06T12:16:41;12.41;43.55
70826;SHT31;58446;41.490;22.098;2023-04-06T12:19:07;11.94;44.41
70826;SHT31;58446;41.490;22.098;2023-04-06T12:21:34;12.17;45.44
70826;SHT31;58446;41.490;22.098;2023-04-06T12:24:02;12.31;45.34
70826;SHT31;58446;41.490;22.098;2023-04-06T12:26:29;12.53;44.55
70826;SHT31;58446;41.490;22.098;2023-04-06T12:28:55;12.50;43.80
70826;SHT31;58446;41.490;22.098;2023-04-06T12:31:22;12.31;44.07
70826;SHT31;58446;41.490;22.098;2023-04-06T12:33:51;12.38;44.13
70826;SHT31;58446;41.490;22.098;2023-04-06T12:36:19;12.55;43.88
70826;SHT31;58446;41.490;22.098;2023-04-06T12:38:47;12.34;43.96
70826;SHT31;58446;41.490;22.098;2023-04-06T12:41:13;11.97;43.66
70826;SHT31;58446;41.490;22.098;2023-04-06T12:43:39;11.59;43.97
70826;SHT31;58446;41.490;22.098;2023-04-06T12:46:05;11.53;44.14
70826;SHT31;58446;41.490;22.098;2023-04-06T12:48:31;11.67;44.81
70826;SHT31;58446;41.490;22.098;2023-04-06T12:50:58;11.76;44.42
70826;SHT31;58446;41.490;22.098;2023-04-06T12:53:24;11.56;43.94
70826;SHT31;58446;41.490;22.098;2023-04-06T12:55:51;11.56;44.65
70826;SHT31;58446;41.490;22.098;2023-04-06T12:58:17;11.76;44.41
70826;SHT31;58446;41.490;22.098;2023-04-06T13:00:43;11.93;44.38
70826;SHT31;58446;41.490;22.098;2023-04-06T13:03:09;12.02;43.96
70826;SHT31;58446;41.490;22.098;2023-04-06T13:05:34;12.02;44.19
70826;SHT31;58446;41.490;22.098;2023-04-06T13:08:00;12.01;44.20
70826;SHT31;58446;41.490;22.098;2023-04-06T13:10:26;12.11;44.05
70826;SHT31;58446;41.490;22.098;2023-04-06T13:12:52;12.15;43.36
70826;SHT31;58446;41.490;22.098;2023-04-06T13:15:18;12.17;43.33
70826;SHT31;58446;41.490;22.098;2023-04-06T13:17:43;12.27;43.83
70826;SHT31;58446;41.490;22.098;2023-04-06T13:20:09;12.29;42.99
70826;SHT31;58446;41.490;22.098;2023-04-06T13:22:35;12.36;43.06
70826;SHT31;58446;41.490;22.098;2023-04-06T13:25:01;12.52;42.88
70826;SHT31;58446;41.490;22.098;2023-04-06T13:27:27;12.27;42.86
70826;SHT31;58446;41.490;22.098;2023-04-06T13:29:54;12.05;43.77
70826;SHT31;58446;41.490;22.098;2023-04-06T13:32:20;12.20;43.52
70826;SHT31;58446;41.490;22.098;2023-04-06T13:34:46;12.32;42.32
70826;SHT31;58446;41.490;22.098;2023-04-06T13:37:14;12.36;43.41
70826;SHT31;58446;41.490;22.098;2023-04-06T13:39:41;12.36;42.99
70826;SHT31;58446;41.490;22.098;2023-04-06T13:42:06;12.35;42.50
70826;SHT31;58446;41.490;22.098;2023-04-06T13:44:32;12.01;42.51
70826;SHT31;58446;41.490;22.098;2023-04-06T13:46:58;11.86;42.87
70826;SHT31;58446;41.490;22.098;2023-04-06T13:49:24;11.77;42.90
70826;SHT31;58446;41.490;22.098;2023-04-06T13:51:49;11.76;42.79
70826;SHT31;58446;41.490;22.098;2023-04-06T13:54:15;11.73;43.27
70826;SHT31;58446;41.490;22.098;2023-04-06T13:56:41;11.91;43.75
70826;SHT31;58446;41.490;22.098;2023-04-06T13:59:06;11.99;43.33
70826;SHT31;58446;41.490;22.098;2023-04-06T14:01:32;12.08;43.37
70826;SHT31;58446;41.490;22.098;2023-04-06T14:03:58;12.05;43.04
70826;SHT31;58446;41.490;22.098;2023-04-06T14:06:23;11.87;43.33
70826;SHT31;58446;41.490;22.098;2023-04-06T14:08:49;12.04;43.37
70826;SHT31;58446;41.490;22.098;2023-04-06T14:11:15;12.07;43.07
70826;SHT31;58446;41.490;22.098;2023-04-06T14:13:41;12.07;42.90
70826;SHT31;58446;41.490;22.098;2023-04-06T14:16:07;12.08;42.97
70826;SHT31;58446;41.490;22.098;2023-04-06T14:18:33;12.02;42.05
70826;SHT31;58446;41.490;22.098;2023-04-06T14:20:59;12.02;42.36
70826;SHT31;58446;41.490;22.098;2023-04-06T14:23:27;11.88;42.78
70826;SHT31;58446;41.490;22.098;2023-04-06T14:26:07;11.91;43.41
70826;SHT31;58446;41.490;22.098;2023-04-06T14:28:35;12.02;43.18
70826;SHT31;58446;41.490;22.098;2023-04-06T14:31:02;11.99;43.32
70826;SHT31;58446;41.490;22.098;2023-04-06T14:33:30;12.04;43.43
70826;SHT31;58446;41.490;22.098;2023-04-06T14:35:55;12.02;43.82
70826;SHT31;58446;41.490;22.098;2023-04-06T14:38:21;11.98;44.03
70826;SHT31;58446;41.490;22.098;2023-04-06T14:40:50;11.90;44.06
70826;SHT31;58446;41.490;22.098;2023-04-06T14:43:16;11.76;44.01
70826;SHT31;58446;41.490;22.098;2023-04-06T14:45:42;11.74;43.79
70826;SHT31;58446;41.490;22.098;2023-04-06T14:48:08;11.84;43.77
70826;SHT31;58446;41.490;22.098;2023-04-06T14:50:38;11.91;43.92
70826;SHT31;58446;41.490;22.098;2023-04-06T14:53:04;11.84;44.08
70826;SHT31;58446;41.490;22.098;2023-04-06T14:55:30;11.74;43.83
70826;SHT31;58446;41.490;22.098;2023-04-06T14:57:56;11.74;43.60
70826;SHT31;58446;41.490;22.098;2023-04-06T15:00:23;11.76;43.64
70826;SHT31;58446;41.490;22.098;2023-04-06T15:02:49;11.69;43.83
70826;SHT31;58446;41.490;22.098;2023-04-06T15:05:15;11.57;43.74
70826;SHT31;58446;41.490;22.098;2023-04-06T15:07:41;11.52;43.93
70826;SHT31;58446;41.490;22.098;2023-04-06T15:10:08;11.43;43.77
70826;SHT31;58446;41.490;22.098;2023-04-06T15:12:37;11.50;43.99
70826;SHT31;58446;41.490;22.098;2023-04-06T15:15:03;11.50;43.74
70826;SHT31;58446;41.490;22.098;2023-04-06T15:17:30;11.40;43.76
70826;SHT31;58446;41.490;22.098;2023-04-06T15:19:55;11.37;43.72
70826;SHT31;58446;41.490;22.098;2023-04-06T15:22:21;11.26;43.89
70826;SHT31;58446;41.490;22.098;2023-04-06T15:24:47;11.35;43.91
70826;SHT31;58446;41.490;22.098;2023-04-06T15:27:12;11.33;44.26
70826;SHT31;58446;41.490;22.098;2023-04-06T15:29:38;11.29;44.04
70826;SHT31;58446;41.490;22.098;2023-04-06T15:32:04;11.14;44.12
70826;SHT31;58446;41.490;22.098;2023-04-06T15:34:33;11.08;44.06